Camp Wood, Texas
Current Conditions -  °F | °C
As of 1:10 PM on Tuesday 21 Oct 2014 (Local Time) from KECU Reporting Station
Few Clouds Few Clouds  
Wind Chill: 75°   Ceiling: Unl
Heat Index: 75°   Visibility: 10mi
Dew Point: 55°   Wind: 7mph
Humidity: 50%   Direction: 130°SE
Pressure: 30.1"   Gusts: NA
Location:  29.67°N, 100.01°W
Report Text: KECU 211810Z AUTO 13006KT 10SM FEW039 24/13 A3010 RMK AO2
Loading
Personal Weather Stations






























Interactive Weather Map
Tropical Storm Tracking
New forecast layout! Learn more

10-Day Weather Forecast

Advertisements
Track Severe Weather on mobile